Time;durP1;ratioP1;P1;durP2;ratioP2;P2;SDS_P1;SDS_P2;PMS_P1;PMS_P2;Temp;Humidity;BMP_temperature;BMP_pressure;BME280_temperature;BME280_humidity;BME280_pressure;Samples;Min_cycle;Max_cycle;Signal;HPM_P1;HPM_P2
2021/12/22 00:00:54;;;;;;;0.10;0.10;;;;;;;;;;5053880;28;20028;-68
2021/12/22 00:03:19;;;;;;;1.23;0.20;;;;;;;;;;5054071;28;20025;-67
2021/12/22 00:05:46;;;;;;;0.13;0.10;;;;;;;;;;5053515;28;20679;-68
2021/12/22 00:08:13;;;;;;;0.20;0.10;;;;;;;;;;5053480;28;20713;-67
2021/12/22 00:10:39;;;;;;;0.45;0.10;;;;;;;;;;5052077;28;20025;-67
2021/12/22 00:13:04;;;;;;;0.43;0.10;;;;;;;;;;5052242;28;20016;-68
2021/12/22 00:15:30;;;;;;;0.17;0.17;;;;;;;;;;5053454;28;20027;-67
2021/12/22 00:17:55;;;;;;;0.70;0.20;;;;;;;;;;5053385;28;20036;-67
2021/12/22 00:20:20;;;;;;;0.85;0.25;;;;;;;;;;5052918;28;20558;-67
2021/12/22 00:22:45;;;;;;;0.43;0.30;;;;;;;;;;5053090;28;20033;-67
2021/12/22 00:25:11;;;;;;;0.73;0.10;;;;;;;;;;5037175;28;20440;-67
2021/12/22 00:27:36;;;;;;;0.60;0.40;;;;;;;;;;5032921;28;20028;-67
2021/12/22 00:30:01;;;;;;;0.95;0.30;;;;;;;;;;5032071;28;20085;-67
2021/12/22 00:32:29;;;;;;;0.25;0.22;;;;;;;;;;5033090;28;20377;-67
2021/12/22 00:34:56;;;;;;;0.68;0.35;;;;;;;;;;5033154;28;20048;-67
2021/12/22 00:37:22;;;;;;;0.73;0.20;;;;;;;;;;5033195;28;20021;-67
2021/12/22 00:39:47;;;;;;;0.88;0.40;;;;;;;;;;5032931;28;20485;-67
2021/12/22 00:42:13;;;;;;;0.30;0.20;;;;;;;;;;5032845;28;20021;-67
2021/12/22 00:44:39;;;;;;;0.98;0.28;;;;;;;;;;5031525;28;20028;-68
2021/12/22 00:47:04;;;;;;;0.88;0.30;;;;;;;;;;5038570;28;20027;-67
2021/12/22 00:49:29;;;;;;;0.40;0.13;;;;;;;;;;5052724;28;20017;-67
2021/12/22 00:51:55;;;;;;;0.20;0.20;;;;;;;;;;5052771;28;20028;-67
2021/12/22 00:54:20;;;;;;;0.75;0.38;;;;;;;;;;5052584;28;20252;-68
2021/12/22 00:56:45;;;;;;;0.30;0.10;;;;;;;;;;5052530;28;20024;-68
2021/12/22 00:59:10;;;;;;;1.23;0.30;;;;;;;;;;5033957;28;20029;-67
2021/12/22 01:01:35;;;;;;;0.73;0.30;;;;;;;;;;5031244;28;20361;-67
2021/12/22 01:04:01;;;;;;;1.13;0.35;;;;;;;;;;5032711;28;20725;-67
2021/12/22 01:06:27;;;;;;;1.08;0.35;;;;;;;;;;5032492;28;20091;-67
2021/12/22 01:08:52;;;;;;;0.38;0.28;;;;;;;;;;5032490;28;20435;-68
2021/12/22 01:11:17;;;;;;;0.23;0.20;;;;;;;;;;5032648;28;20017;-67
2021/12/22 01:13:42;;;;;;;0.25;0.20;;;;;;;;;;5032408;28;20634;-67
2021/12/22 01:16:07;;;;;;;0.43;0.22;;;;;;;;;;5032490;28;20388;-67
2021/12/22 01:18:35;;;;;;;0.45;0.20;;;;;;;;;;5032293;28;20064;-67
2021/12/22 01:24:10;;;;;;;0.40;0.13;;;;;;;;;;5032549;28;20116;-67
2021/12/22 01:26:40;;;;;;;0.90;0.28;;;;;;;;;;5032251;28;20026;-69
2021/12/22 01:29:06;;;;;;;0.30;0.20;;;;;;;;;;5032359;28;20025;-68
2021/12/22 01:31:31;;;;;;;0.80;0.13;;;;;;;;;;5031020;28;20083;-68
2021/12/22 01:33:56;;;;;;;0.65;0.20;;;;;;;;;;5032250;28;20104;-67
2021/12/22 01:36:21;;;;;;;1.03;0.20;;;;;;;;;;5032064;28;20037;-67
2021/12/22 01:38:48;;;;;;;0.20;0.13;;;;;;;;;;5031332;28;20251;-67
2021/12/22 01:41:13;;;;;;;0.90;0.20;;;;;;;;;;5032210;28;20017;-68
2021/12/22 01:43:38;;;;;;;0.60;0.20;;;;;;;;;;5032000;28;20024;-68
2021/12/22 01:51:33;;;;;;;0.75;0.20;;;;;;;;;;5052088;28;20032;-67
2021/12/22 01:54:00;;;;;;;0.32;0.20;;;;;;;;;;5052114;28;20074;-67
2021/12/22 01:56:27;;;;;;;1.10;0.20;;;;;;;;;;5051845;28;20107;-67
2021/12/22 01:58:55;;;;;;;0.20;0.10;;;;;;;;;;5051860;28;20021;-67
2021/12/22 02:01:20;;;;;;;1.35;0.30;;;;;;;;;;5051907;28;20021;-68
2021/12/22 02:03:47;;;;;;;0.70;0.32;;;;;;;;;;5051678;28;20466;-67
2021/12/22 02:06:13;;;;;;;0.38;0.15;;;;;;;;;;5050450;28;20044;-67
2021/12/22 02:08:39;;;;;;;0.22;0.10;;;;;;;;;;5051691;28;20021;-67
2021/12/22 02:11:05;;;;;;;0.57;0.10;;;;;;;;;;5051917;28;20403;-67
2021/12/22 02:13:35;;;;;;;2.00;0.20;;;;;;;;;;5051757;28;20025;-68
2021/12/22 02:16:09;;;;;;;0.15;0.13;;;;;;;;;;5051823;28;20040;-68
2021/12/22 02:18:36;;;;;;;1.08;0.30;;;;;;;;;;5051615;28;20025;-67
2021/12/22 02:21:01;;;;;;;0.75;0.20;;;;;;;;;;5051527;28;20484;-67
2021/12/22 02:23:26;;;;;;;1.17;0.20;;;;;;;;;;5049861;28;20032;-67
2021/12/22 02:25:57;;;;;;;0.60;0.20;;;;;;;;;;5031712;28;20545;-67
2021/12/22 02:28:27;;;;;;;0.43;0.20;;;;;;;;;;5031621;28;20020;-67
2021/12/22 02:30:53;;;;;;;0.77;0.25;;;;;;;;;;5032272;28;20095;-68
2021/12/22 02:36:06;;;;;;;1.08;0.40;;;;;;;;;;5031837;28;20025;-67
2021/12/22 02:38:32;;;;;;;0.20;0.08;;;;;;;;;;5031580;28;20017;-67
2021/12/22 02:40:57;;;;;;;0.55;0.03;;;;;;;;;;5031620;28;20063;-67
2021/12/22 02:43:24;;;;;;;1.25;0.22;;;;;;;;;;5031671;28;20060;-68
2021/12/22 02:45:51;;;;;;;0.10;0.00;;;;;;;;;;5031512;28;20144;-67
2021/12/22 02:48:16;;;;;;;0.10;0.10;;;;;;;;;;5046997;28;20558;-69
2021/12/22 02:50:42;;;;;;;0.63;0.15;;;;;;;;;;5053032;28;20021;-67
2021/12/22 02:53:13;;;;;;;0.10;0.10;;;;;;;;;;5055051;28;20021;-67
2021/12/22 02:56:02;;;;;;;0.30;0.10;;;;;;;;;;5054857;28;20017;-67
2021/12/22 02:58:45;;;;;;;0.30;0.15;;;;;;;;;;5054684;28;20021;-67
2021/12/22 03:01:50;;;;;;;1.38;0.28;;;;;;;;;;5053887;28;20365;-67
2021/12/22 03:04:18;;;;;;;0.70;0.30;;;;;;;;;;5054611;28;20028;-67
2021/12/22 03:06:52;;;;;;;0.52;0.10;;;;;;;;;;5054647;28;20020;-68
2021/12/22 03:09:20;;;;;;;0.85;0.30;;;;;;;;;;5054857;28;20021;-67
2021/12/22 03:11:45;;;;;;;1.20;0.30;;;;;;;;;;5054444;28;20041;-67
2021/12/22 03:14:11;;;;;;;0.47;0.43;;;;;;;;;;5054615;28;20380;-67
2021/12/22 03:16:36;;;;;;;0.20;0.10;;;;;;;;;;5054482;28;20108;-67
2021/12/22 03:19:02;;;;;;;0.10;0.10;;;;;;;;;;5054929;28;20032;-68
2021/12/22 03:21:27;;;;;;;0.88;0.10;;;;;;;;;;5054284;28;20278;-68
2021/12/22 03:23:54;;;;;;;0.10;0.10;;;;;;;;;;5049221;28;20013;-67
2021/12/22 03:26:21;;;;;;;0.10;0.10;;;;;;;;;;5033087;28;20305;-68
2021/12/22 03:28:47;;;;;;;0.52;0.30;;;;;;;;;;5034068;28;20024;-67
2021/12/22 03:31:13;;;;;;;1.27;0.20;;;;;;;;;;5034702;28;20018;-67
2021/12/22 03:33:38;;;;;;;0.43;0.20;;;;;;;;;;5034176;28;20049;-67
2021/12/22 03:36:04;;;;;;;0.40;0.20;;;;;;;;;;5034423;28;20460;-67
2021/12/22 03:38:31;;;;;;;0.77;0.22;;;;;;;;;;5034076;28;20116;-68
2021/12/22 03:40:56;;;;;;;0.13;0.10;;;;;;;;;;5034426;28;20440;-68
2021/12/22 03:43:21;;;;;;;0.55;0.22;;;;;;;;;;5034187;28;20033;-67
2021/12/22 03:45:46;;;;;;;0.30;0.13;;;;;;;;;;5034026;28;20037;-67
2021/12/22 03:48:12;;;;;;;0.10;0.10;;;;;;;;;;5048814;28;20089;-68
2021/12/22 03:50:37;;;;;;;0.25;0.10;;;;;;;;;;5053822;28;20250;-68
2021/12/22 03:53:03;;;;;;;1.05;0.35;;;;;;;;;;5054287;28;20102;-67
2021/12/22 03:55:28;;;;;;;0.20;0.10;;;;;;;;;;5053894;28;20029;-67
2021/12/22 03:57:53;;;;;;;0.30;0.10;;;;;;;;;;5053798;28;20382;-68
2021/12/22 04:00:19;;;;;;;0.70;0.25;;;;;;;;;;5053561;28;20036;-68
2021/12/22 04:02:44;;;;;;;0.45;0.10;;;;;;;;;;5052906;28;20020;-67
2021/12/22 04:05:09;;;;;;;0.57;0.10;;;;;;;;;;5053681;28;20075;-68
2021/12/22 04:07:34;;;;;;;0.32;0.10;;;;;;;;;;5053550;28;20021;-67
2021/12/22 04:10:08;;;;;;;0.52;0.10;;;;;;;;;;5053847;28;20013;-67
2021/12/22 04:12:33;;;;;;;0.50;0.10;;;;;;;;;;5053434;28;20024;-67
2021/12/22 04:14:58;;;;;;;0.88;0.10;;;;;;;;;;5053524;28;20016;-68
2021/12/22 04:17:23;;;;;;;0.57;0.13;;;;;;;;;;5052244;28;20025;-67
2021/12/22 04:19:49;;;;;;;0.17;0.10;;;;;;;;;;5053260;28;20697;-69
2021/12/22 04:22:15;;;;;;;0.00;0.00;;;;;;;;;;5052988;28;20048;-67
2021/12/22 04:24:40;;;;;;;0.63;0.20;;;;;;;;;;5041179;28;20024;-67
2021/12/22 04:27:05;;;;;;;0.70;0.10;;;;;;;;;;5033400;28;20013;-68
2021/12/22 04:29:30;;;;;;;0.10;0.10;;;;;;;;;;5033215;28;20033;-67
2021/12/22 04:31:56;;;;;;;0.20;0.10;;;;;;;;;;5033211;28;20025;-67
2021/12/22 04:34:21;;;;;;;0.20;0.13;;;;;;;;;;5031751;28;20579;-68
2021/12/22 04:36:46;;;;;;;1.75;0.47;;;;;;;;;;5032987;28;20330;-67
2021/12/22 04:39:11;;;;;;;0.95;0.45;;;;;;;;;;5033243;28;20021;-68
2021/12/22 04:41:37;;;;;;;0.10;0.10;;;;;;;;;;5032893;28;20061;-67
2021/12/22 04:44:03;;;;;;;0.73;0.20;;;;;;;;;;5033348;28;20251;-67
2021/12/22 04:46:28;;;;;;;0.38;0.15;;;;;;;;;;5033597;28;20025;-68
2021/12/22 04:48:53;;;;;;;0.33;0.10;;;;;;;;;;5051542;28;20032;-67
2021/12/22 04:51:27;;;;;;;0.37;0.10;;;;;;;;;;5052865;28;20878;-67
2021/12/22 04:54:12;;;;;;;0.30;0.20;;;;;;;;;;5052717;28;20805;-67
2021/12/22 04:56:39;;;;;;;1.15;0.32;;;;;;;;;;5052595;28;20452;-67
2021/12/22 04:59:04;;;;;;;0.10;0.00;;;;;;;;;;5035122;28;20025;-68
2021/12/22 05:01:29;;;;;;;0.43;0.10;;;;;;;;;;5032582;28;20031;-68
2021/12/22 05:03:56;;;;;;;0.35;0.00;;;;;;;;;;5032686;28;20025;-67
2021/12/22 05:06:21;;;;;;;0.32;0.10;;;;;;;;;;5032619;28;20021;-67
2021/12/22 05:08:46;;;;;;;0.15;0.03;;;;;;;;;;5032473;28;20473;-67
2021/12/22 05:11:11;;;;;;;0.75;0.10;;;;;;;;;;5032688;28;20556;-67
2021/12/22 05:13:37;;;;;;;0.57;0.10;;;;;;;;;;5031548;28;20036;-67
2021/12/22 05:16:04;;;;;;;0.85;0.10;;;;;;;;;;5031621;28;20757;-67
2021/12/22 05:18:49;;;;;;;0.52;0.25;;;;;;;;;;5032264;28;20021;-69
2021/12/22 05:21:14;;;;;;;0.20;0.20;;;;;;;;;;5032317;28;20075;-67
2021/12/22 05:23:39;;;;;;;0.30;0.20;;;;;;;;;;5032273;28;20017;-67
2021/12/22 05:26:04;;;;;;;0.30;0.10;;;;;;;;;;5032439;28;20017;-67
2021/12/22 05:28:29;;;;;;;0.20;0.00;;;;;;;;;;5032164;28;20290;-68
2021/12/22 05:30:55;;;;;;;0.43;0.13;;;;;;;;;;5032291;28;20255;-67
2021/12/22 05:33:20;;;;;;;0.80;0.10;;;;;;;;;;5032332;28;20049;-68
2021/12/22 05:35:45;;;;;;;0.10;0.00;;;;;;;;;;5032167;28;20296;-67
2021/12/22 05:38:10;;;;;;;1.65;0.10;;;;;;;;;;5032228;28;20021;-67
2021/12/22 05:40:36;;;;;;;0.20;0.00;;;;;;;;;;5032430;28;20096;-67
2021/12/22 05:43:01;;;;;;;1.08;0.20;;;;;;;;;;5032167;28;20017;-67
2021/12/22 05:45:26;;;;;;;0.13;0.07;;;;;;;;;;5032207;28;20362;-67
2021/12/22 05:47:53;;;;;;;0.40;0.03;;;;;;;;;;5044180;28;20258;-67
2021/12/22 05:50:18;;;;;;;0.20;0.10;;;;;;;;;;5050655;28;20087;-68
2021/12/22 05:52:43;;;;;;;0.60;0.10;;;;;;;;;;5050679;28;20403;-67
2021/12/22 05:55:08;;;;;;;0.80;0.10;;;;;;;;;;5050833;28;20025;-67
2021/12/22 05:57:33;;;;;;;0.65;0.13;;;;;;;;;;5051885;28;20039;-67
2021/12/22 05:59:59;;;;;;;0.20;0.00;;;;;;;;;;5052107;28;20017;-68
2021/12/22 06:02:25;;;;;;;0.50;0.20;;;;;;;;;;5051692;28;20260;-67
2021/12/22 06:04:50;;;;;;;0.63;0.10;;;;;;;;;;5050496;28;20067;-68
2021/12/22 06:07:15;;;;;;;0.27;0.10;;;;;;;;;;5051966;28;20520;-68
2021/12/22 06:09:40;;;;;;;0.20;0.10;;;;;;;;;;5052047;28;20013;-69
2021/12/22 06:12:05;;;;;;;1.07;0.10;;;;;;;;;;5051986;28;20789;-67
2021/12/22 06:14:31;;;;;;;0.30;0.10;;;;;;;;;;5051674;28;20262;-67
2021/12/22 06:16:56;;;;;;;0.35;0.10;;;;;;;;;;5051803;28;20052;-68
2021/12/22 06:19:21;;;;;;;0.35;0.10;;;;;;;;;;5051882;28;20029;-67
2021/12/22 06:21:47;;;;;;;1.48;0.30;;;;;;;;;;5051393;28;20075;-68
2021/12/22 06:24:12;;;;;;;0.50;0.10;;;;;;;;;;5042288;28;20045;-67
2021/12/22 06:26:37;;;;;;;0.20;0.00;;;;;;;;;;5034927;28;20026;-67
2021/12/22 06:29:02;;;;;;;1.10;0.20;;;;;;;;;;5035933;28;20326;-68
2021/12/22 06:31:27;;;;;;;0.50;0.10;;;;;;;;;;5035571;28;20045;-68
2021/12/22 06:33:52;;;;;;;0.93;0.27;;;;;;;;;;5035418;28;20025;-68
2021/12/22 06:36:18;;;;;;;0.67;0.10;;;;;;;;;;5035316;28;20262;-67
2021/12/22 06:38:43;;;;;;;0.80;0.20;;;;;;;;;;5035381;28;20243;-67
2021/12/22 06:41:09;;;;;;;1.17;0.10;;;;;;;;;;5035417;28;20025;-68
2021/12/22 06:43:34;;;;;;;0.63;0.30;;;;;;;;;;5035251;28;20068;-67
2021/12/22 06:45:59;;;;;;;0.30;0.10;;;;;;;;;;5035305;28;20706;-67
2021/12/22 06:48:24;;;;;;;0.82;0.20;;;;;;;;;;5051741;28;20250;-67
2021/12/22 06:50:49;;;;;;;0.52;0.43;;;;;;;;;;5055028;28;20017;-68
2021/12/22 06:53:15;;;;;;;0.10;0.10;;;;;;;;;;5055173;28;20064;-68
2021/12/22 06:55:40;;;;;;;0.28;0.10;;;;;;;;;;5054897;28;20246;-67
2021/12/22 06:58:05;;;;;;;0.80;0.13;;;;;;;;;;5055069;28;20029;-67
2021/12/22 07:00:31;;;;;;;0.63;0.20;;;;;;;;;;5054690;28;20032;-67
2021/12/22 07:02:57;;;;;;;0.80;0.17;;;;;;;;;;5054811;28;20057;-67
2021/12/22 07:05:23;;;;;;;0.20;0.10;;;;;;;;;;5053641;28;20017;-67
2021/12/22 07:07:48;;;;;;;1.30;0.10;;;;;;;;;;5054654;28;20468;-68
2021/12/22 07:10:13;;;;;;;0.50;0.10;;;;;;;;;;5054635;28;20346;-67
2021/12/22 07:12:40;;;;;;;0.40;0.20;;;;;;;;;;5054744;28;20040;-67
2021/12/22 07:15:07;;;;;;;0.30;0.20;;;;;;;;;;5053512;28;20538;-67
2021/12/22 07:17:33;;;;;;;0.47;0.10;;;;;;;;;;5054598;28;20029;-68
2021/12/22 07:19:58;;;;;;;0.85;0.10;;;;;;;;;;5054585;28;20028;-67
2021/12/22 07:22:23;;;;;;;0.33;0.10;;;;;;;;;;5054209;28;20057;-68
2021/12/22 07:24:49;;;;;;;0.40;0.10;;;;;;;;;;5041323;28;20359;-67
2021/12/22 07:27:14;;;;;;;0.97;0.33;;;;;;;;;;5034602;28;20028;-67
2021/12/22 07:29:41;;;;;;;0.17;0.10;;;;;;;;;;5032984;28;20396;-67
2021/12/22 07:32:06;;;;;;;0.40;0.03;;;;;;;;;;5044975;28;20028;-67
2021/12/22 07:34:41;;;;;;;0.40;0.10;;;;;;;;;;5053971;28;20115;-68
2021/12/22 07:37:14;;;;;;;1.17;0.10;;;;;;;;;;5044276;28;20037;-67
2021/12/22 07:39:40;;;;;;;0.50;0.20;;;;;;;;;;5048694;28;20070;-68
2021/12/22 07:42:05;;;;;;;0.40;0.20;;;;;;;;;;5053000;28;20025;-68
2021/12/22 07:44:30;;;;;;;0.20;0.10;;;;;;;;;;5043646;28;20372;-67
2021/12/22 07:46:55;;;;;;;0.33;0.20;;;;;;;;;;5026191;28;20053;-68
2021/12/22 07:49:20;;;;;;;0.63;0.10;;;;;;;;;;5033667;28;20259;-68
2021/12/22 07:51:45;;;;;;;1.30;0.23;;;;;;;;;;5032574;28;20317;-68
2021/12/22 07:54:11;;;;;;;1.07;0.20;;;;;;;;;;5027959;28;20270;-67
2021/12/22 07:56:36;;;;;;;0.93;0.10;;;;;;;;;;5017167;28;20071;-68
2021/12/22 07:59:01;;;;;;;0.80;0.10;;;;;;;;;;5030921;28;20052;-70
2021/12/22 08:01:26;;;;;;;0.10;0.00;;;;;;;;;;5050001;28;20297;-68
2021/12/22 08:03:51;;;;;;;1.70;0.10;;;;;;;;;;5051762;28;20039;-65
2021/12/22 08:06:17;;;;;;;0.63;0.00;;;;;;;;;;5034085;28;20100;-69
2021/12/22 08:08:42;;;;;;;0.70;0.20;;;;;;;;;;5032431;28;20378;-69
2021/12/22 08:11:07;;;;;;;0.25;0.10;;;;;;;;;;5034319;28;20129;-68
2021/12/22 08:13:34;;;;;;;0.53;0.30;;;;;;;;;;5033866;28;20022;-65
2021/12/22 08:15:59;;;;;;;2.55;0.17;;;;;;;;;;5034049;28;20325;-66
2021/12/22 08:18:25;;;;;;;0.50;0.00;;;;;;;;;;5053450;28;20559;-68
2021/12/22 08:20:50;;;;;;;1.08;0.30;;;;;;;;;;5053144;28;20247;-68
2021/12/22 08:23:18;;;;;;;2.72;0.17;;;;;;;;;;5053244;28;20033;-67
2021/12/22 08:25:43;;;;;;;1.40;0.20;;;;;;;;;;5032284;28;20377;-67
2021/12/22 08:28:09;;;;;;;0.65;0.20;;;;;;;;;;5033406;28;20024;-65
2021/12/22 08:30:34;;;;;;;0.37;0.10;;;;;;;;;;5033151;28;20030;-67
2021/12/22 08:33:01;;;;;;;0.40;0.10;;;;;;;;;;5031977;28;20022;-67
2021/12/22 08:35:29;;;;;;;0.32;0.10;;;;;;;;;;5032896;28;20258;-66
2021/12/22 08:40:38;;;;;;;0.47;0.15;;;;;;;;;;5029939;28;20202;-67
2021/12/22 08:43:03;;;;;;;0.35;0.20;;;;;;;;;;5030735;28;20112;-68
2021/12/22 08:45:29;;;;;;;0.30;0.10;;;;;;;;;;5030423;28;20380;-67
2021/12/22 08:47:54;;;;;;;0.50;0.13;;;;;;;;;;5030472;28;20255;-66
2021/12/22 08:50:19;;;;;;;0.00;0.00;;;;;;;;;;5030330;28;20255;-67
2021/12/22 08:52:45;;;;;;;0.50;0.20;;;;;;;;;;5029780;28;20075;-66
2021/12/22 08:55:11;;;;;;;0.25;0.10;;;;;;;;;;5030730;28;20071;-67
2021/12/22 08:57:36;;;;;;;0.10;0.10;;;;;;;;;;5029748;28;20018;-67
2021/12/22 09:00:03;;;;;;;0.83;0.17;;;;;;;;;;5032402;28;20064;-68
2021/12/22 09:02:29;;;;;;;0.80;0.00;;;;;;;;;;5033218;28;20068;-68
2021/12/22 09:04:54;;;;;;;2.58;0.43;;;;;;;;;;5031329;28;20049;-67
2021/12/22 09:07:19;;;;;;;0.68;0.22;;;;;;;;;;5032786;28;20056;-67
2021/12/22 09:09:44;;;;;;;0.53;0.17;;;;;;;;;;5037332;28;20059;-68
2021/12/22 09:12:09;;;;;;;1.00;0.10;;;;;;;;;;5040071;28;20269;-67
2021/12/22 09:14:34;;;;;;;0.22;0.10;;;;;;;;;;5031788;28;20681;-66
2021/12/22 09:17:00;;;;;;;1.30;0.30;;;;;;;;;;5033344;28;20052;-66
2021/12/22 09:19:25;;;;;;;0.65;0.25;;;;;;;;;;5030907;28;20029;-67
2021/12/22 09:21:51;;;;;;;0.30;0.20;;;;;;;;;;5029501;28;20037;-67
2021/12/22 09:24:17;;;;;;;0.10;0.10;;;;;;;;;;5031050;28;20255;-66
2021/12/22 09:26:42;;;;;;;0.30;0.15;;;;;;;;;;5031801;28;20036;-67
2021/12/22 09:29:07;;;;;;;0.20;0.10;;;;;;;;;;5028485;28;20059;-67
2021/12/22 09:31:32;;;;;;;0.80;0.10;;;;;;;;;;5032225;28;20617;-66
2021/12/22 09:33:57;;;;;;;0.43;0.17;;;;;;;;;;5032105;28;20025;-67
2021/12/22 09:36:23;;;;;;;0.40;0.30;;;;;;;;;;5032126;28;20266;-67
2021/12/22 09:38:48;;;;;;;0.22;0.22;;;;;;;;;;5032171;28;20461;-67
2021/12/22 09:41:13;;;;;;;0.45;0.10;;;;;;;;;;5032237;28;20022;-67
2021/12/22 09:43:39;;;;;;;0.50;0.30;;;;;;;;;;5032104;28;20427;-67
2021/12/22 09:46:09;;;;;;;0.10;0.10;;;;;;;;;;5030993;28;20289;-67
2021/12/22 09:53:35;;;;;;;0.20;0.20;;;;;;;;;;5032176;28;20048;-67
2021/12/22 09:56:00;;;;;;;0.20;0.00;;;;;;;;;;5031707;28;20021;-67
2021/12/22 09:58:26;;;;;;;1.40;0.20;;;;;;;;;;5031875;28;20083;-67
2021/12/22 10:00:51;;;;;;;0.45;0.10;;;;;;;;;;5034098;28;20254;-67
2021/12/22 10:03:17;;;;;;;1.35;0.32;;;;;;;;;;5035913;28;20458;-67
2021/12/22 10:05:42;;;;;;;0.20;0.10;;;;;;;;;;5036000;28;20017;-67
2021/12/22 10:08:09;;;;;;;0.68;0.17;;;;;;;;;;5034722;28;20108;-67
2021/12/22 10:10:36;;;;;;;0.43;0.00;;;;;;;;;;5035862;28;20466;-67
2021/12/22 10:13:09;;;;;;;0.20;0.03;;;;;;;;;;5036068;28;20472;-67
2021/12/22 10:15:35;;;;;;;0.10;0.10;;;;;;;;;;5044885;28;20056;-67
2021/12/22 10:18:11;;;;;;;0.63;0.10;;;;;;;;;;5053836;28;20021;-67
2021/12/22 10:20:36;;;;;;;0.38;0.13;;;;;;;;;;5055266;28;20024;-67
2021/12/22 10:23:02;;;;;;;1.02;0.47;;;;;;;;;;5055926;28;20025;-67
2021/12/22 10:25:29;;;;;;;0.00;0.00;;;;;;;;;;5055693;28;20028;-66
2021/12/22 10:28:00;;;;;;;0.60;0.13;;;;;;;;;;5039636;28;20477;-67
2021/12/22 10:30:33;;;;;;;0.47;0.30;;;;;;;;;;5033506;28;20028;-68
2021/12/22 10:33:17;;;;;;;0.25;0.10;;;;;;;;;;5031998;28;20025;-67
2021/12/22 10:35:46;;;;;;;0.20;0.10;;;;;;;;;;5033257;28;20492;-68
2021/12/22 10:38:12;;;;;;;0.40;0.17;;;;;;;;;;5032566;28;20491;-67
2021/12/22 10:40:41;;;;;;;0.30;0.10;;;;;;;;;;5034174;28;20021;-67
2021/12/22 10:43:09;;;;;;;0.38;0.00;;;;;;;;;;5034296;28;20384;-67
2021/12/22 10:45:35;;;;;;;0.50;0.30;;;;;;;;;;5034247;28;20036;-66
2021/12/22 10:50:46;;;;;;;0.10;0.10;;;;;;;;;;5032932;28;20032;-67
2021/12/22 10:53:13;;;;;;;0.55;0.15;;;;;;;;;;5035191;28;20025;-67
2021/12/22 10:55:42;;;;;;;0.25;0.20;;;;;;;;;;5044611;28;20480;-67
2021/12/22 10:58:18;;;;;;;0.40;0.15;;;;;;;;;;5051408;28;20166;-67
2021/12/22 11:00:44;;;;;;;0.38;0.10;;;;;;;;;;5014832;28;20434;-67
2021/12/22 11:03:13;;;;;;;0.40;0.20;;;;;;;;;;5038592;28;20038;-66
2021/12/22 11:05:45;;;;;;;0.10;0.10;;;;;;;;;;5054794;28;20024;-66
2021/12/22 11:08:21;;;;;;;0.80;0.47;;;;;;;;;;5045780;28;20400;-66
2021/12/22 11:10:46;;;;;;;0.43;0.28;;;;;;;;;;5034322;28;20010;-66
2021/12/22 11:13:16;;;;;;;0.70;0.15;;;;;;;;;;5034971;28;20369;-67
2021/12/22 11:15:42;;;;;;;0.40;0.20;;;;;;;;;;5034492;28;20022;-67
2021/12/22 11:18:24;;;;;;;0.03;0.00;;;;;;;;;;5034580;28;20483;-67
2021/12/22 11:21:05;;;;;;;0.40;0.25;;;;;;;;;;5034162;28;20017;-67
2021/12/22 11:23:30;;;;;;;0.45;0.32;;;;;;;;;;5034602;28;20025;-67
2021/12/22 11:25:55;;;;;;;0.20;0.10;;;;;;;;;;5034653;28;20342;-67
2021/12/22 11:28:20;;;;;;;0.30;0.10;;;;;;;;;;5034198;28;20255;-67
2021/12/22 11:30:46;;;;;;;0.33;0.10;;;;;;;;;;5034395;28;20034;-66
2021/12/22 11:33:11;;;;;;;0.05;0.03;;;;;;;;;;5034413;28;20044;-66
2021/12/22 11:35:39;;;;;;;0.50;0.13;;;;;;;;;;5034324;28;20059;-67
2021/12/22 11:38:05;;;;;;;0.38;0.10;;;;;;;;;;5034508;28;20025;-66
2021/12/22 11:40:30;;;;;;;0.15;0.08;;;;;;;;;;5034152;28;20063;-66
2021/12/22 11:42:55;;;;;;;0.38;0.20;;;;;;;;;;5033344;28;20048;-67
2021/12/22 11:45:22;;;;;;;0.20;0.10;;;;;;;;;;5034161;28;20072;-67
2021/12/22 11:47:49;;;;;;;0.30;0.10;;;;;;;;;;5032895;28;20009;-66
2021/12/22 11:50:19;;;;;;;0.28;0.10;;;;;;;;;;5032538;28;20024;-67
2021/12/22 11:53:02;;;;;;;0.73;0.20;;;;;;;;;;5032159;28;20021;-66
2021/12/22 11:55:37;;;;;;;0.25;0.00;;;;;;;;;;5026761;28;20064;-67
2021/12/22 11:58:02;;;;;;;;;;;;;;;;;;5033563;28;20377;-66
2021/12/22 12:00:34;;;;;;;0.10;0.10;;;;;;;;;;5032758;28;19909;-67
2021/12/22 12:03:19;;;;;;;1.27;0.10;;;;;;;;;;5014211;28;20025;-66
2021/12/22 12:06:00;;;;;;;0.20;0.00;;;;;;;;;;5014280;28;20258;-67
2021/12/22 12:08:31;;;;;;;0.10;0.10;;;;;;;;;;5014008;28;20080;-67
2021/12/22 12:10:59;;;;;;;0.77;0.15;;;;;;;;;;5014008;28;20025;-66
2021/12/22 12:13:33;;;;;;;0.20;0.20;;;;;;;;;;5014016;28;20484;-67
2021/12/22 12:21:37;;;;;;;;;;;;;;;;;;5014367;28;20372;-67
2021/12/22 12:21:51;;;;;;;0.47;0.20;;;;;;;;;;5013367;28;20048;-67
2021/12/22 12:24:32;;;;;;;2.08;0.73;;;;;;;;;;5013179;28;20026;-67
2021/12/22 12:26:57;;;;;;;0.38;0.28;;;;;;;;;;5013707;28;20026;-67
2021/12/22 12:29:41;;;;;;;0.70;0.10;;;;;;;;;;5014108;28;20504;-67
2021/12/22 12:32:06;;;;;;;0.35;0.10;;;;;;;;;;5013580;28;20300;-67
2021/12/22 12:34:31;;;;;;;0.77;0.20;;;;;;;;;;5013688;28;20095;-67
2021/12/22 12:36:57;;;;;;;0.40;0.10;;;;;;;;;;5013575;28;20339;-67
2021/12/22 12:39:41;;;;;;;0.80;0.20;;;;;;;;;;5013550;28;20067;-66
2021/12/22 12:42:06;;;;;;;1.55;0.30;;;;;;;;;;5013406;28;20318;-67
2021/12/22 12:44:31;;;;;;;0.40;0.20;;;;;;;;;;5013441;28;20317;-66
2021/12/22 12:46:56;;;;;;;1.20;0.10;;;;;;;;;;5022425;28;20063;-67
2021/12/22 12:49:21;;;;;;;0.28;0.10;;;;;;;;;;5052988;28;20025;-68
2021/12/22 12:51:47;;;;;;;0.10;0.10;;;;;;;;;;5046971;28;20033;-68
2021/12/22 12:54:15;;;;;;;1.25;0.10;;;;;;;;;;5028518;28;20112;-66
2021/12/22 12:56:42;;;;;;;0.75;0.28;;;;;;;;;;5021525;28;20045;-67
2021/12/22 12:59:11;;;;;;;0.10;0.10;;;;;;;;;;5031332;28;20029;-67
2021/12/22 13:04:10;;;;;;;;;;;;;;;;;;5033052;28;20112;-67
2021/12/22 13:06:35;;;;;;;1.10;0.30;;;;;;;;;;5032049;28;20007;-67
2021/12/22 13:09:00;;;;;;;0.60;0.10;;;;;;;;;;5031570;28;20041;-67
2021/12/22 13:11:26;;;;;;;0.10;0.00;;;;;;;;;;5030509;28;20325;-67
2021/12/22 13:16:41;;;;;;;0.43;0.10;;;;;;;;;;5039467;28;20047;-67
2021/12/22 13:19:07;;;;;;;0.30;0.20;;;;;;;;;;5028356;28;20390;-67
2021/12/22 13:21:32;;;;;;;0.70;0.30;;;;;;;;;;5028752;28;20033;-67
2021/12/22 13:23:57;;;;;;;0.60;0.20;;;;;;;;;;5025798;28;20029;-66
2021/12/22 13:26:23;;;;;;;0.80;0.10;;;;;;;;;;5030976;28;20381;-67
2021/12/22 13:28:48;;;;;;;0.77;0.10;;;;;;;;;;5027363;28;20029;-67
2021/12/22 13:31:13;;;;;;;1.40;0.60;;;;;;;;;;5027283;28;20462;-68
2021/12/22 13:33:40;;;;;;;1.03;0.50;;;;;;;;;;5027519;28;20308;-68
2021/12/22 13:36:07;;;;;;;0.65;0.22;;;;;;;;;;5036276;28;20265;-67
2021/12/22 13:38:33;;;;;;;0.35;0.10;;;;;;;;;;5030288;28;20022;-66
2021/12/22 13:40:58;;;;;;;0.50;0.10;;;;;;;;;;5029643;28;20018;-66
2021/12/22 13:43:24;;;;;;;0.30;0.28;;;;;;;;;;5030295;28;20036;-66
2021/12/22 13:45:52;;;;;;;1.42;0.20;;;;;;;;;;5051979;28;20344;-66
2021/12/22 13:48:18;;;;;;;0.10;0.05;;;;;;;;;;5042127;28;20376;-66
2021/12/22 13:50:44;;;;;;;1.00;0.35;;;;;;;;;;5046281;28;20104;-65
2021/12/22 13:53:09;;;;;;;0.65;0.38;;;;;;;;;;5029180;28;20504;-66
2021/12/22 13:55:34;;;;;;;0.75;0.38;;;;;;;;;;5031856;28;20125;-67
2021/12/22 13:57:59;;;;;;;0.38;0.10;;;;;;;;;;5028841;28;20104;-67
2021/12/22 14:00:24;;;;;;;0.73;0.10;;;;;;;;;;5033666;28;20452;-66
2021/12/22 14:02:50;;;;;;;0.20;0.10;;;;;;;;;;5046215;28;20029;-66
2021/12/22 14:05:19;;;;;;;0.20;0.10;;;;;;;;;;5031396;28;20669;-67
2021/12/22 14:07:45;;;;;;;0.38;0.10;;;;;;;;;;5031522;28;20095;-67
2021/12/22 14:10:12;;;;;;;0.98;0.28;;;;;;;;;;5032018;28;20477;-67
2021/12/22 14:12:39;;;;;;;0.35;0.20;;;;;;;;;;5031499;28;20021;-67
2021/12/22 14:15:05;;;;;;;0.80;0.22;;;;;;;;;;5032043;28;20022;-66
2021/12/22 14:17:37;;;;;;;0.10;0.10;;;;;;;;;;5031510;28;20557;-66
2021/12/22 14:20:34;;;;;;;0.22;0.20;;;;;;;;;;5033102;28;20052;-66
2021/12/22 14:23:03;;;;;;;0.30;0.20;;;;;;;;;;4966119;28;20078;-67
2021/12/22 14:25:31;;;;;;;0.57;0.30;;;;;;;;;;4969126;28;20138;-66
2021/12/22 14:28:14;;;;;;;0.30;0.10;;;;;;;;;;4969109;28;20597;-67
2021/12/22 14:30:40;;;;;;;0.75;0.20;;;;;;;;;;4968356;28;20031;-66
2021/12/22 14:33:06;;;;;;;0.50;0.20;;;;;;;;;;4961359;28;20122;-66
2021/12/22 14:35:33;;;;;;;0.65;0.28;;;;;;;;;;4964593;28;20382;-66
2021/12/22 14:38:00;;;;;;;0.50;0.20;;;;;;;;;;4967554;28;20046;-65
2021/12/22 14:40:26;;;;;;;0.20;0.10;;;;;;;;;;4968453;28;20534;-67
2021/12/22 14:42:54;;;;;;;1.23;0.25;;;;;;;;;;4965350;28;20038;-67
2021/12/22 14:45:27;;;;;;;0.65;0.25;;;;;;;;;;4952089;28;20058;-68
2021/12/22 14:48:12;;;;;;;1.42;0.40;;;;;;;;;;4972171;28;20110;-67
2021/12/22 14:50:39;;;;;;;3.50;0.43;;;;;;;;;;4971612;28;20109;-67
2021/12/22 14:53:06;;;;;;;0.20;0.20;;;;;;;;;;4981617;28;20050;-67
2021/12/22 14:55:39;;;;;;;0.43;0.10;;;;;;;;;;4971443;28;20038;-66
2021/12/22 14:58:04;;;;;;;0.28;0.20;;;;;;;;;;4977778;28;20034;-65
2021/12/22 15:00:30;;;;;;;1.42;0.30;;;;;;;;;;5005458;28;20414;-65
2021/12/22 15:02:55;;;;;;;0.85;0.40;;;;;;;;;;5011281;28;20026;-65
2021/12/22 15:05:20;;;;;;;0.88;0.47;;;;;;;;;;5010749;28;20105;-63
2021/12/22 15:07:45;;;;;;;0.23;0.17;;;;;;;;;;5011142;28;20080;-63
2021/12/22 15:10:10;;;;;;;0.67;0.33;;;;;;;;;;5014098;28;20453;-64
2021/12/22 15:12:35;;;;;;;0.52;0.20;;;;;;;;;;5014180;28;20030;-68